Cat Creek, Montana
Current Conditions -  °F | °C
As of 5:55 AM on Wednesday 26 Nov 2014 (Local Time) from KMVH Reporting Station
Haze Haze  
Wind Chill: 25°   Ceiling: 2600
Heat Index: 25°   Visibility: 3mi
Dew Point: 23°   Wind: 0mph
Humidity: 93%   Direction: NA
Pressure: 30.13"   Gusts: NA
Location:  47.1145°N, 108.252°W
Report Text: KMVH 261255Z AUTO 00000KT 3SM BR OVC026 M04/M05 A3013 RMK A01
Loading
Personal Weather Stations






























Interactive Weather Map New forecast layout! Learn more

10-Day Weather Forecast

Advertisements
Track Severe Weather on mobile